Startup, Washington
Current Conditions -  °F | °C
As of 6:53 PM on Friday 21 Nov 2014 (Local Time) from KPAE Reporting Station
Haze Haze  
Wind Chill:   Ceiling: 400
Heat Index:   Visibility: 4mi
Dew Point:   Wind: 5mph
Humidity: 93%   Direction: NA
Pressure: 29.31"   Gusts: NA
Location:  47.87°N, 121.74°W
Report Text: KPAE 220253Z VRB04KT 4SM BR BKN004 OVC015 08/07 A2931 RMK AO2 RAE37 SLP927 P0003 60006 T00830072 56017
Loading
Personal Weather Stations






























Interactive Weather Map New forecast layout! Learn more

10-Day Weather Forecast

Advertisements
Track Severe Weather on mobile